Time;durP1;ratioP1;P1;durP2;ratioP2;P2;SDS_P1;SDS_P2;PMS_P1;PMS_P2;Temp;Humidity;BMP_temperature;BMP_pressure;BME280_temperature;BME280_humidity;BME280_pressure;Samples;Min_cycle;Max_cycle;Signal;HPM_P1;HPM_P2
2021/07/07 00:01:06;;;;;;;;;;;15.40;99.90;;;;;;5033017;28;20205;-77
2021/07/07 00:03:32;;;;;;;;;;;15.40;99.90;;;;;;5016067;28;19909;-77
2021/07/07 00:05:58;;;;;;;;;;;15.40;99.90;;;;;;5032616;28;21672;-76
2021/07/07 00:08:24;;;;;;;;;;;15.40;99.90;;;;;;5033829;28;19916;-76
2021/07/07 00:10:49;;;;;;;;;;;15.50;99.90;;;;;;5015276;28;19917;-75
2021/07/07 00:13:15;;;;;;;;;;;15.50;99.90;;;;;;5024999;28;19935;-75
2021/07/07 00:15:41;;;;;;;;;;;15.50;99.90;;;;;;5033644;28;19921;-76
2021/07/07 00:18:08;;;;;;;;;;;15.50;99.90;;;;;;5029506;28;19913;-75
2021/07/07 00:20:38;;;;;;;;;;;15.50;99.90;;;;;;5032288;28;19921;-75
2021/07/07 00:23:04;;;;;;;;;;;15.50;99.90;;;;;;5022921;28;19967;-77
2021/07/07 00:25:29;;;;;;;;;;;15.50;99.90;;;;;;5028748;28;19913;-75
2021/07/07 00:27:55;;;;;;;;;;;15.50;99.90;;;;;;5034306;28;19963;-76
2021/07/07 00:30:21;;;;;;;;;;;15.60;99.90;;;;;;5033785;28;19920;-77
2021/07/07 00:32:46;;;;;;;;;;;15.50;99.90;;;;;;5035020;28;19917;-76
2021/07/07 00:35:12;;;;;;;;;;;15.50;99.90;;;;;;5032861;28;19917;-77
2021/07/07 00:37:38;;;;;;;;;;;15.50;99.90;;;;;;5035565;28;19964;-77
2021/07/07 00:40:04;;;;;;;;;;;15.40;99.90;;;;;;5019552;28;20323;-77
2021/07/07 00:42:30;;;;;;;;;;;15.40;99.90;;;;;;5036433;28;20327;-77
2021/07/07 00:44:55;;;;;;;;;;;15.40;99.90;;;;;;5037664;28;19909;-77
2021/07/07 00:47:21;;;;;;;;;;;15.30;99.90;;;;;;5034437;28;20256;-76
2021/07/07 00:49:46;;;;;;;;;;;15.30;99.90;;;;;;5021768;28;19940;-77
2021/07/07 00:52:12;;;;;;;;;;;15.30;99.90;;;;;;5032752;28;19924;-77
2021/07/07 00:54:38;;;;;;;;;;;15.20;99.90;;;;;;5036399;28;19936;-77
2021/07/07 00:57:04;;;;;;;;;;;15.20;99.90;;;;;;5035723;28;20012;-77
2021/07/07 00:59:29;;;;;;;;;;;15.10;99.90;;;;;;5029699;28;20220;-77
2021/07/07 01:01:55;;;;;;;;;;;15.10;99.90;;;;;;5018599;28;19932;-77
2021/07/07 01:04:21;;;;;;;;;;;15.10;99.90;;;;;;5033441;28;19914;-76
2021/07/07 01:06:47;;;;;;;;;;;15.10;99.90;;;;;;5029275;28;19921;-78
2021/07/07 01:09:12;;;;;;;;;;;15.10;99.90;;;;;;5036814;28;19913;-76
2021/07/07 01:11:38;;;;;;;;;;;15.10;99.90;;;;;;5034878;28;19924;-76
2021/07/07 01:14:04;;;;;;;;;;;15.10;99.90;;;;;;5017686;28;19944;-77
2021/07/07 01:16:30;;;;;;;;;;;15.10;99.90;;;;;;5018903;28;19920;-77
2021/07/07 01:18:56;;;;;;;;;;;15.00;99.90;;;;;;5018646;28;20307;-77
2021/07/07 01:21:22;;;;;;;;;;;15.00;99.90;;;;;;5035965;28;19913;-77
2021/07/07 01:23:48;;;;;;;;;;;15.00;99.90;;;;;;5036383;28;19948;-77
2021/07/07 01:26:13;;;;;;;;;;;15.00;99.90;;;;;;5036606;28;20271;-77
2021/07/07 01:28:39;;;;;;;;;;;15.00;99.90;;;;;;5017998;28;19909;-77
2021/07/07 01:31:05;;;;;;;;;;;15.00;99.90;;;;;;5051201;28;19917;-77
2021/07/07 01:33:31;;;;;;;;;;;15.00;99.90;;;;;;5017937;28;19920;-77
2021/07/07 01:35:57;;;;;;;;;;;14.90;99.90;;;;;;5033227;28;20298;-76
2021/07/07 01:38:23;;;;;;;;;;;14.90;99.90;;;;;;5034250;28;19957;-78
2021/07/07 01:40:48;;;;;;;;;;;14.80;99.90;;;;;;5036430;28;19921;-78
2021/07/07 01:43:14;;;;;;;;;;;14.80;99.90;;;;;;5034617;28;19963;-78
2021/07/07 01:45:39;;;;;;;;;;;14.80;99.90;;;;;;5019892;28;20195;-78
2021/07/07 01:48:05;;;;;;;;;;;14.80;99.90;;;;;;5035127;28;19961;-77
2021/07/07 01:50:30;;;;;;;;;;;14.70;99.90;;;;;;5034238;28;20396;-78
2021/07/07 01:52:56;;;;;;;;;;;14.70;99.90;;;;;;5017912;28;19963;-77
2021/07/07 01:55:22;;;;;;;;;;;14.60;99.90;;;;;;5034573;28;19921;-77
2021/07/07 01:57:49;;;;;;;;;;;14.60;99.90;;;;;;5033782;28;19917;-77
2021/07/07 02:00:27;;;;;;;;;;;14.60;99.90;;;;;;5050248;28;20266;-78
2021/07/07 02:02:54;;;;;;;;;;;14.60;99.90;;;;;;5035472;28;19921;-79
2021/07/07 02:05:21;;;;;;;;;;;14.60;99.90;;;;;;5035362;28;20292;-79
2021/07/07 02:07:47;;;;;;;;;;;14.60;99.90;;;;;;5018023;28;20216;-78
2021/07/07 02:10:13;;;;;;;;;;;14.60;99.90;;;;;;5034600;28;19913;-78
2021/07/07 02:12:39;;;;;;;;;;;14.60;99.90;;;;;;5035239;28;19917;-77
2021/07/07 02:15:06;;;;;;;;;;;14.60;99.90;;;;;;5035092;28;19932;-78
2021/07/07 02:17:32;;;;;;;;;;;14.50;99.90;;;;;;5034707;28;19924;-78
2021/07/07 02:19:58;;;;;;;;;;;14.50;99.90;;;;;;5031373;28;19917;-78
2021/07/07 02:22:23;;;;;;;;;;;14.50;99.90;;;;;;5018164;28;19917;-78
2021/07/07 02:24:49;;;;;;;;;;;14.50;99.90;;;;;;5030877;28;19917;-78
2021/07/07 02:27:14;;;;;;;;;;;14.50;99.90;;;;;;5043414;28;20098;-78
2021/07/07 02:29:40;;;;;;;;;;;14.50;99.90;;;;;;5033221;28;19924;-77
2021/07/07 02:32:05;;;;;;;;;;;14.50;99.90;;;;;;5037904;28;20220;-78
2021/07/07 02:34:31;;;;;;;;;;;14.50;99.90;;;;;;5017107;28;19920;-78
2021/07/07 02:36:56;;;;;;;;;;;14.50;99.90;;;;;;5047383;28;20317;-78
2021/07/07 02:39:22;;;;;;;;;;;14.50;99.90;;;;;;5032476;28;19913;-79
2021/07/07 02:41:48;;;;;;;;;;;14.50;99.90;;;;;;5033014;28;20002;-78
2021/07/07 02:44:13;;;;;;;;;;;14.50;99.90;;;;;;5034815;28;19917;-79
2021/07/07 02:46:39;;;;;;;;;;;14.50;99.90;;;;;;5033100;28;20208;-77
2021/07/07 02:49:04;;;;;;;;;;;14.60;99.90;;;;;;5021144;28;19909;-78
2021/07/07 02:51:30;;;;;;;;;;;14.60;99.90;;;;;;5032877;28;19917;-77
2021/07/07 02:53:55;;;;;;;;;;;14.60;99.90;;;;;;5033942;28;19917;-77
2021/07/07 02:56:21;;;;;;;;;;;14.60;99.90;;;;;;5034955;28;19927;-78
2021/07/07 02:58:47;;;;;;;;;;;14.70;99.90;;;;;;5032224;28;19939;-77
2021/07/07 03:01:12;;;;;;;;;;;14.70;99.90;;;;;;5016823;28;19913;-78
2021/07/07 03:03:38;;;;;;;;;;;14.70;99.90;;;;;;5016649;28;20599;-78
2021/07/07 03:06:04;;;;;;;;;;;14.70;99.90;;;;;;5034322;28;19960;-78
2021/07/07 03:08:31;;;;;;;;;;;14.70;99.90;;;;;;5034727;28;19917;-78
2021/07/07 03:10:56;;;;;;;;;;;14.80;99.90;;;;;;5037193;28;19917;-77
2021/07/07 03:13:23;;;;;;;;;;;14.80;99.90;;;;;;5032957;28;19920;-77
2021/07/07 03:15:49;;;;;;;;;;;14.80;99.90;;;;;;5034501;28;19921;-78
2021/07/07 03:18:14;;;;;;;;;;;14.80;99.90;;;;;;5032911;28;19920;-77
2021/07/07 03:20:41;;;;;;;;;;;14.80;99.90;;;;;;5012086;28;20189;-77
2021/07/07 03:23:07;;;;;;;;;;;14.80;99.90;;;;;;5015596;28;20232;-78
2021/07/07 03:25:33;;;;;;;;;;;14.80;99.90;;;;;;5033852;28;19916;-77
2021/07/07 03:27:59;;;;;;;;;;;14.90;99.90;;;;;;5033625;28;19971;-78
2021/07/07 03:30:28;;;;;;;;;;;14.90;99.90;;;;;;5016886;28;19913;-77
2021/07/07 03:32:54;;;;;;;;;;;14.90;99.90;;;;;;5033594;28;20297;-78
2021/07/07 03:35:20;;;;;;;;;;;14.90;99.90;;;;;;5032563;28;19917;-77
2021/07/07 03:37:45;;;;;;;;;;;15.00;99.90;;;;;;5017025;28;20327;-77
2021/07/07 03:40:11;;;;;;;;;;;15.00;99.90;;;;;;5033283;28;19957;-77
2021/07/07 03:42:38;;;;;;;;;;;15.00;99.90;;;;;;5034608;28;20327;-77
2021/07/07 03:45:03;;;;;;;;;;;15.00;99.90;;;;;;5031493;28;20336;-77
2021/07/07 03:47:29;;;;;;;;;;;14.90;99.90;;;;;;5049438;28;20013;-77
2021/07/07 03:49:55;;;;;;;;;;;14.90;99.90;;;;;;5034237;28;20004;-77
2021/07/07 03:52:21;;;;;;;;;;;14.90;99.90;;;;;;5021143;28;19913;-77
2021/07/07 03:54:46;;;;;;;;;;;14.80;99.90;;;;;;5018492;28;19921;-77
2021/07/07 03:57:12;;;;;;;;;;;14.80;99.90;;;;;;5032837;28;19928;-76
2021/07/07 03:59:37;;;;;;;;;;;14.80;99.90;;;;;;5027819;28;19920;-78
2021/07/07 04:02:03;;;;;;;;;;;14.80;99.90;;;;;;5032882;28;19913;-77
2021/07/07 04:04:28;;;;;;;;;;;14.80;99.90;;;;;;5047991;28;19925;-77
2021/07/07 04:06:58;;;;;;;;;;;14.70;99.90;;;;;;5034483;28;19920;-77
2021/07/07 04:09:25;;;;;;;;;;;14.70;99.90;;;;;;5018991;28;19960;-78
2021/07/07 04:11:50;;;;;;;;;;;14.80;99.90;;;;;;5017714;28;20351;-77
2021/07/07 04:14:22;;;;;;;;;;;14.80;99.90;;;;;;5035494;28;20008;-77
2021/07/07 04:16:49;;;;;;;;;;;14.90;99.90;;;;;;5031466;28;19917;-77
2021/07/07 04:19:14;;;;;;;;;;;14.90;99.90;;;;;;5036622;28;19913;-77
2021/07/07 04:21:40;;;;;;;;;;;15.00;99.90;;;;;;5036768;28;19916;-77
2021/07/07 04:24:05;;;;;;;;;;;15.10;99.90;;;;;;5036550;28;19913;-77
2021/07/07 04:26:31;;;;;;;;;;;15.10;99.90;;;;;;5035436;28;19924;-77
2021/07/07 04:28:56;;;;;;;;;;;15.10;99.90;;;;;;5023787;28;19916;-77
2021/07/07 04:31:23;;;;;;;;;;;15.10;99.90;;;;;;5050189;28;19920;-77
2021/07/07 04:33:49;;;;;;;;;;;15.10;99.90;;;;;;5034506;28;19928;-78
2021/07/07 04:36:14;;;;;;;;;;;15.10;99.90;;;;;;5035538;28;20320;-77
2021/07/07 04:38:40;;;;;;;;;;;15.10;99.90;;;;;;5035824;28;19916;-78
2021/07/07 04:41:05;;;;;;;;;;;15.10;99.90;;;;;;5018174;28;20263;-77
2021/07/07 04:43:32;;;;;;;;;;;15.10;99.90;;;;;;5018472;28;19975;-77
2021/07/07 04:45:57;;;;;;;;;;;15.20;99.90;;;;;;5035159;28;19913;-76
2021/07/07 04:48:23;;;;;;;;;;;15.20;99.90;;;;;;5034103;28;19928;-78
2021/07/07 04:50:49;;;;;;;;;;;15.30;99.90;;;;;;5033999;28;19921;-78
2021/07/07 04:53:14;;;;;;;;;;;15.40;99.90;;;;;;5033495;28;19919;-77
2021/07/07 04:55:40;;;;;;;;;;;15.50;99.90;;;;;;5018615;28;19925;-78
2021/07/07 04:58:08;;;;;;;;;;;15.60;99.90;;;;;;5036323;28;19912;-78
2021/07/07 05:00:33;;;;;;;;;;;15.60;99.90;;;;;;5034991;28;19920;-79
2021/07/07 05:02:59;;;;;;;;;;;15.70;99.90;;;;;;5035820;28;19921;-78
2021/07/07 05:05:25;;;;;;;;;;;15.80;99.90;;;;;;5033676;28;19921;-78
2021/07/07 05:07:51;;;;;;;;;;;15.80;99.90;;;;;;5033351;28;20311;-78
2021/07/07 05:10:16;;;;;;;;;;;15.90;99.90;;;;;;5036172;28;19920;-78
2021/07/07 05:12:42;;;;;;;;;;;15.90;99.90;;;;;;5033931;28;19922;-79
2021/07/07 05:15:09;;;;;;;;;;;16.00;99.90;;;;;;5036192;28;19960;-79
2021/07/07 05:17:35;;;;;;;;;;;16.00;99.90;;;;;;5033974;28;19932;-80
2021/07/07 05:20:00;;;;;;;;;;;15.90;99.90;;;;;;5035778;28;19913;-79
2021/07/07 05:22:27;;;;;;;;;;;15.90;99.90;;;;;;5035261;28;20335;-77
2021/07/07 05:24:53;;;;;;;;;;;15.90;99.90;;;;;;5019648;28;20212;-80
2021/07/07 05:27:18;;;;;;;;;;;15.90;99.90;;;;;;5035388;28;19921;-78
2021/07/07 05:29:44;;;;;;;;;;;15.90;99.90;;;;;;5035761;28;19920;-79
2021/07/07 05:32:10;;;;;;;;;;;15.90;99.90;;;;;;5035757;28;19925;-79
2021/07/07 05:34:37;;;;;;;;;;;15.90;99.90;;;;;;5032974;28;20268;-77
2021/07/07 05:37:02;;;;;;;;;;;15.90;99.90;;;;;;5034084;28;19916;-78
2021/07/07 05:39:28;;;;;;;;;;;16.00;99.90;;;;;;5034149;28;20225;-78
2021/07/07 05:41:53;;;;;;;;;;;16.10;99.90;;;;;;5034680;28;19975;-78
2021/07/07 05:44:19;;;;;;;;;;;16.20;99.90;;;;;;5036303;28;19939;-80
2021/07/07 05:46:45;;;;;;;;;;;16.50;99.90;;;;;;5034968;28;19913;-79
2021/07/07 05:49:10;;;;;;;;;;;16.60;99.90;;;;;;5017393;28;19967;-80
2021/07/07 05:51:36;;;;;;;;;;;16.80;99.90;;;;;;5015049;28;20365;-80
2021/07/07 05:54:01;;;;;;;;;;;16.80;99.90;;;;;;5033217;28;19933;-78
2021/07/07 05:56:27;;;;;;;;;;;16.90;99.90;;;;;;5015017;28;20509;-76
2021/07/07 05:58:52;;;;;;;;;;;17.00;99.90;;;;;;5034321;28;19921;-78
2021/07/07 06:01:18;;;;;;;;;;;17.10;99.90;;;;;;5018186;28;19973;-79
2021/07/07 06:03:44;;;;;;;;;;;17.20;99.90;;;;;;5035534;28;19913;-80
2021/07/07 06:06:09;;;;;;;;;;;17.20;99.90;;;;;;5035937;28;19917;-78
2021/07/07 06:08:35;;;;;;;;;;;17.20;99.90;;;;;;5017803;28;20312;-78
2021/07/07 06:11:00;;;;;;;;;;;17.20;99.90;;;;;;5017977;28;20008;-78
2021/07/07 06:13:26;;;;;;;;;;;17.10;99.90;;;;;;5035087;28;19913;-79
2021/07/07 06:15:52;;;;;;;;;;;17.10;99.90;;;;;;5034373;28;20385;-79
2021/07/07 06:18:17;;;;;;;;;;;17.10;99.90;;;;;;5035499;28;20205;-78
2021/07/07 06:20:43;;;;;;;;;;;17.10;99.90;;;;;;5049954;28;19909;-78
2021/07/07 06:23:09;;;;;;;;;;;17.20;99.90;;;;;;5046843;28;19968;-76
2021/07/07 06:25:34;;;;;;;;;;;17.30;99.90;;;;;;5014629;28;19953;-79
2021/07/07 06:28:00;;;;;;;;;;;17.30;99.90;;;;;;5034647;28;20297;-79
2021/07/07 06:30:26;;;;;;;;;;;17.40;99.90;;;;;;5010461;28;19991;-77
2021/07/07 06:32:52;;;;;;;;;;;17.40;99.90;;;;;;5015003;28;20300;-79
2021/07/07 06:35:18;;;;;;;;;;;17.40;99.90;;;;;;5016407;28;20027;-80
2021/07/07 06:37:44;;;;;;;;;;;17.40;99.90;;;;;;5016959;28;20012;-80
2021/07/07 06:40:10;;;;;;;;;;;17.40;99.90;;;;;;5016275;28;19978;-78
2021/07/07 06:42:36;;;;;;;;;;;17.50;99.90;;;;;;5032749;28;20328;-77
2021/07/07 06:45:03;;;;;;;;;;;17.60;99.90;;;;;;5031857;28;19979;-76
2021/07/07 06:47:28;;;;;;;;;;;17.60;99.90;;;;;;5035449;28;19917;-79
2021/07/07 06:49:54;;;;;;;;;;;17.60;99.90;;;;;;5049490;28;20276;-77
2021/07/07 06:52:20;;;;;;;;;;;17.70;99.90;;;;;;5017275;28;19909;-79
2021/07/07 06:54:46;;;;;;;;;;;17.70;99.90;;;;;;5017484;28;20282;-79
2021/07/07 06:57:14;;;;;;;;;;;17.80;99.90;;;;;;5030748;28;19925;-77
2021/07/07 06:59:39;;;;;;;;;;;17.80;99.90;;;;;;5032734;28;20262;-78
2021/07/07 07:02:05;;;;;;;;;;;17.90;99.90;;;;;;5033317;28;19921;-80
2021/07/07 07:04:31;;;;;;;;;;;18.00;99.90;;;;;;5033357;28;19940;-81
2021/07/07 07:06:57;;;;;;;;;;;18.10;99.90;;;;;;5033951;28;20003;-78
2021/07/07 07:09:23;;;;;;;;;;;18.20;99.90;;;;;;5031237;28;19917;-79
2021/07/07 07:11:49;;;;;;;;;;;18.30;99.90;;;;;;5031402;28;20015;-77
2021/07/07 07:14:14;;;;;;;;;;;18.30;99.90;;;;;;5047817;28;19913;-80
2021/07/07 07:16:42;;;;;;;;;;;18.40;99.90;;;;;;5012653;28;19964;-76
2021/07/07 07:19:07;;;;;;;;;;;18.50;99.90;;;;;;5048876;28;19923;-77
2021/07/07 07:21:33;;;;;;;;;;;18.60;99.90;;;;;;5030171;28;19917;-78
2021/07/07 07:23:59;;;;;;;;;;;18.60;99.90;;;;;;5033409;28;19929;-78
2021/07/07 07:26:27;;;;;;;;;;;18.70;99.90;;;;;;5031807;28;19914;-77
2021/07/07 07:28:53;;;;;;;;;;;18.70;99.90;;;;;;5033484;28;20335;-80
2021/07/07 07:31:18;;;;;;;;;;;18.60;99.90;;;;;;5032355;28;19917;-80
2021/07/07 07:33:44;;;;;;;;;;;18.60;99.90;;;;;;5023912;28;19943;-81
2021/07/07 07:36:10;;;;;;;;;;;18.60;99.90;;;;;;5033071;28;19923;-80
2021/07/07 07:38:43;;;;;;;;;;;18.80;99.90;;;;;;5032836;28;19917;-76
2021/07/07 07:41:09;;;;;;;;;;;18.90;99.90;;;;;;5031489;28;19921;-77
2021/07/07 07:43:35;;;;;;;;;;;19.10;99.90;;;;;;5030821;28;20204;-77
2021/07/07 07:46:01;;;;;;;;;;;19.20;99.90;;;;;;5030285;28;19920;-82
2021/07/07 07:48:26;;;;;;;;;;;19.40;99.90;;;;;;5028514;28;21250;-79
2021/07/07 07:50:52;;;;;;;;;;;19.60;99.90;;;;;;5033322;28;19921;-78
2021/07/07 07:53:18;;;;;;;;;;;19.60;99.90;;;;;;5032380;28;20694;-77
2021/07/07 07:55:44;;;;;;;;;;;19.80;99.90;;;;;;5015529;28;20427;-80
2021/07/07 07:58:10;;;;;;;;;;;19.90;99.90;;;;;;5027894;28;19913;-82
2021/07/07 08:00:35;;;;;;;;;;;20.00;99.90;;;;;;5025629;28;20001;-80
2021/07/07 08:03:01;;;;;;;;;;;20.20;99.90;;;;;;5010691;28;20012;-80
2021/07/07 08:05:26;;;;;;;;;;;20.30;99.90;;;;;;5007322;28;19972;-80
2021/07/07 08:07:52;;;;;;;;;;;20.40;99.90;;;;;;5041354;28;19910;-80
2021/07/07 08:10:19;;;;;;;;;;;20.50;99.90;;;;;;5038851;28;20348;-80
2021/07/07 08:12:45;;;;;;;;;;;20.50;99.90;;;;;;5028488;28;19910;-81
2021/07/07 08:15:11;;;;;;;;;;;20.60;99.90;;;;;;5013839;28;20332;-80
2021/07/07 08:17:37;;;;;;;;;;;20.70;99.90;;;;;;5028438;28;19914;-78
2021/07/07 08:20:04;;;;;;;;;;;20.80;99.90;;;;;;5026063;28;20325;-79
2021/07/07 08:22:29;;;;;;;;;;;20.80;99.90;;;;;;5027863;28;19924;-79
2021/07/07 08:24:55;;;;;;;;;;;20.80;99.90;;;;;;5013320;28;20495;-80
2021/07/07 08:27:21;;;;;;;;;;;20.80;99.90;;;;;;5013712;28;19920;-77
2021/07/07 08:29:46;;;;;;;;;;;21.00;99.90;;;;;;5012355;28;19916;-78
2021/07/07 08:32:12;;;;;;;;;;;21.20;99.90;;;;;;5012920;28;19918;-83
2021/07/07 08:34:38;;;;;;;;;;;21.40;99.90;;;;;;5013816;28;19913;-79
2021/07/07 08:37:03;;;;;;;;;;;21.50;99.90;;;;;;5013494;28;19917;-82
2021/07/07 08:39:29;;;;;;;;;;;21.40;99.90;;;;;;5029716;28;19976;-80
2021/07/07 08:41:55;;;;;;;;;;;21.40;99.90;;;;;;5010743;28;19922;-78
2021/07/07 08:44:21;;;;;;;;;;;21.10;99.90;;;;;;5029579;28;20300;-77
2021/07/07 08:46:46;;;;;;;;;;;20.90;99.90;;;;;;5016696;28;20193;-76
2021/07/07 08:49:12;;;;;;;;;;;20.60;99.90;;;;;;5017670;28;20048;-77
2021/07/07 08:51:41;;;;;;;;;;;20.40;99.90;;;;;;5016528;28;20075;-79
2021/07/07 08:54:07;;;;;;;;;;;20.30;99.90;;;;;;5035595;28;19921;-76
2021/07/07 08:56:38;;;;;;;;;;;20.50;99.90;;;;;;5015320;28;19917;-80
2021/07/07 08:59:04;;;;;;;;;;;20.70;99.90;;;;;;5034505;28;20312;-77
2021/07/07 09:01:29;;;;;;;;;;;21.10;99.90;;;;;;5034539;28;19920;-76
2021/07/07 09:03:55;;;;;;;;;;;21.30;99.90;;;;;;5034753;28;19917;-76
2021/07/07 09:06:21;;;;;;;;;;;21.40;99.90;;;;;;5035343;28;19913;-81
2021/07/07 09:08:47;;;;;;;;;;;21.40;99.90;;;;;;5036128;28;20315;-77
2021/07/07 09:11:16;;;;;;;;;;;21.30;99.90;;;;;;5034523;28;19920;-79
2021/07/07 09:13:42;;;;;;;;;;;21.10;99.90;;;;;;5033379;28;19909;-80
2021/07/07 09:16:09;;;;;;;;;;;20.70;99.90;;;;;;5034579;28;19963;-78
2021/07/07 09:18:34;;;;;;;;;;;20.50;99.90;;;;;;5017873;28;19917;-81
2021/07/07 09:21:00;;;;;;;;;;;20.30;99.90;;;;;;5035555;28;20577;-79
2021/07/07 09:23:27;;;;;;;;;;;20.20;99.90;;;;;;5049983;28;19971;-81
2021/07/07 09:26:00;;;;;;;;;;;20.10;99.90;;;;;;5034008;28;20392;-78
2021/07/07 09:28:30;;;;;;;;;;;20.20;99.90;;;;;;5033457;28;19925;-76
2021/07/07 09:31:00;;;;;;;;;;;20.10;99.90;;;;;;5034590;28;19961;-76
2021/07/07 09:33:26;;;;;;;;;;;20.20;99.90;;;;;;5032903;28;19921;-77
2021/07/07 09:35:51;;;;;;;;;;;20.20;99.90;;;;;;5032669;28;19986;-78
2021/07/07 09:38:18;;;;;;;;;;;20.30;99.90;;;;;;5020473;28;19932;-78
2021/07/07 09:40:44;;;;;;;;;;;20.30;99.90;;;;;;5032079;28;19948;-77
2021/07/07 09:43:13;;;;;;;;;;;20.40;99.90;;;;;;5033569;28;19921;-77
2021/07/07 09:45:45;;;;;;;;;;;20.40;99.90;;;;;;5040480;28;19913;-74
2021/07/07 09:48:12;;;;;;;;;;;20.40;99.90;;;;;;5032569;28;20323;-76
2021/07/07 09:50:38;;;;;;;;;;;20.30;99.90;;;;;;5036053;28;20300;-75
2021/07/07 09:53:04;;;;;;;;;;;20.40;99.90;;;;;;5034184;28;19917;-78
2021/07/07 09:55:29;;;;;;;;;;;20.50;99.90;;;;;;5032087;28;19932;-79
2021/07/07 09:57:56;;;;;;;;;;;20.60;99.90;;;;;;5035242;28;19924;-79
2021/07/07 10:00:22;;;;;;;;;;;20.60;99.90;;;;;;5025994;28;19927;-77
2021/07/07 10:02:51;;;;;;;;;;;20.60;99.90;;;;;;5035985;28;19921;-78
2021/07/07 10:05:17;;;;;;;;;;;20.60;99.90;;;;;;5050607;28;19952;-76
2021/07/07 10:07:46;;;;;;;;;;;20.70;99.90;;;;;;5033499;28;20312;-75
2021/07/07 10:10:16;;;;;;;;;;;20.80;99.90;;;;;;5032809;28;20586;-77
2021/07/07 10:12:42;;;;;;;;;;;21.30;99.90;;;;;;5032637;28;19967;-77
2021/07/07 10:15:08;;;;;;;;;;;21.40;99.90;;;;;;5032659;28;20296;-78
2021/07/07 10:17:34;;;;;;;;;;;21.50;99.90;;;;;;5018161;28;19971;-79
2021/07/07 10:20:00;;;;;;;;;;;21.40;99.90;;;;;;5051034;28;19925;-76
2021/07/07 10:22:26;;;;;;;;;;;21.40;99.90;;;;;;5015399;28;19917;-75
2021/07/07 10:24:52;;;;;;;;;;;21.30;99.90;;;;;;5033184;28;20016;-77
2021/07/07 10:27:18;;;;;;;;;;;21.10;99.90;;;;;;5032128;28;19917;-76
2021/07/07 10:29:45;;;;;;;;;;;20.80;99.90;;;;;;5032842;28;19964;-76
2021/07/07 10:32:14;;;;;;;;;;;20.70;99.90;;;;;;5032369;28;19932;-78
2021/07/07 10:34:40;;;;;;;;;;;20.80;99.90;;;;;;5047760;28;19921;-77
2021/07/07 10:37:06;;;;;;;;;;;21.10;99.90;;;;;;5033868;28;19935;-77
2021/07/07 10:39:32;;;;;;;;;;;21.30;99.90;;;;;;5032414;28;19968;-80
2021/07/07 10:42:00;;;;;;;;;;;21.40;99.90;;;;;;5031510;28;20236;-77
2021/07/07 10:44:25;;;;;;;;;;;21.80;99.90;;;;;;5031310;28;20261;-77
2021/07/07 10:47:00;;;;;;;;;;;21.90;99.90;;;;;;5045090;28;19921;-78
2021/07/07 10:49:27;;;;;;;;;;;22.00;99.90;;;;;;5032580;28;19939;-78
2021/07/07 10:51:57;;;;;;;;;;;22.10;99.90;;;;;;5032107;28;19920;-77
2021/07/07 10:54:24;;;;;;;;;;;22.00;99.90;;;;;;5032046;28;20193;-77
2021/07/07 10:56:50;;;;;;;;;;;22.00;99.90;;;;;;5032801;28;19974;-77
2021/07/07 10:59:35;;;;;;;;;;;22.20;99.90;;;;;;5031939;28;19924;-77
2021/07/07 11:02:08;;;;;;;;;;;22.30;99.90;;;;;;5031581;28;19913;-75
2021/07/07 11:04:36;;;;;;;;;;;22.50;99.90;;;;;;5048494;28;19917;-78
2021/07/07 11:07:21;;;;;;;;;;;22.50;99.90;;;;;;5048812;28;20323;-77
2021/07/07 11:09:52;;;;;;;;;;;22.50;99.90;;;;;;5015631;28;19924;-77
2021/07/07 11:12:18;;;;;;;;;;;22.80;99.90;;;;;;5033211;28;19935;-77
2021/07/07 11:14:57;;;;;;;;;;;23.00;99.90;;;;;;5034145;28;19916;-77
2021/07/07 11:17:22;;;;;;;;;;;23.10;99.90;;;;;;5015157;28;19917;-76
2021/07/07 11:19:49;;;;;;;;;;;23.20;99.90;;;;;;5031813;28;19967;-77
2021/07/07 11:22:16;;;;;;;;;;;23.60;99.90;;;;;;5033272;28;19935;-80
2021/07/07 11:24:49;;;;;;;;;;;23.70;99.90;;;;;;5015770;28;20220;-77
2021/07/07 11:27:15;;;;;;;;;;;23.60;99.90;;;;;;5032468;28;19917;-75
2021/07/07 11:29:41;;;;;;;;;;;23.40;99.90;;;;;;5033959;28;19966;-77
2021/07/07 11:32:25;;;;;;;;;;;23.00;99.90;;;;;;5045913;28;19914;-76
2021/07/07 11:34:54;;;;;;;;;;;22.50;99.90;;;;;;5031725;28;19913;-76
2021/07/07 11:37:21;;;;;;;;;;;22.10;99.90;;;;;;5032219;28;20243;-75
2021/07/07 11:40:05;;;;;;;;;;;21.80;99.90;;;;;;5032233;28;19919;-77
2021/07/07 11:42:30;;;;;;;;;;;21.60;99.90;;;;;;5048235;28;20015;-78
2021/07/07 11:44:56;;;;;;;;;;;21.40;99.90;;;;;;5029550;28;19992;-77
2021/07/07 11:47:29;;;;;;;;;;;21.30;99.90;;;;;;5028834;28;19913;-77
2021/07/07 11:50:21;;;;;;;;;;;21.30;99.90;;;;;;5042257;28;20309;-77
2021/07/07 11:52:57;;;;;;;;;;;21.40;99.90;;;;;;5027467;28;20229;-77
2021/07/07 11:55:41;;;;;;;;;;;21.50;99.90;;;;;;5026903;28;19928;-77
2021/07/07 11:58:08;;;;;;;;;;;21.50;99.90;;;;;;5022585;28;20006;-77
2021/07/07 12:00:37;;;;;;;;;;;21.60;99.90;;;;;;5032848;28;19963;-77
2021/07/07 12:03:03;;;;;;;;;;;21.70;99.90;;;;;;5030416;28;19920;-77
2021/07/07 12:05:28;;;;;;;;;;;21.80;99.90;;;;;;5031241;28;19917;-78
2021/07/07 12:08:11;;;;;;;;;;;21.70;99.90;;;;;;5032257;28;19917;-78
2021/07/07 12:10:37;;;;;;;;;;;21.60;99.90;;;;;;5032642;28;19968;-77
2021/07/07 12:13:38;;;;;;;;;;;21.40;99.90;;;;;;5030351;28;19913;-79
2021/07/07 12:16:16;;;;;;;;;;;21.30;99.90;;;;;;4980311;28;19964;-76
2021/07/07 12:18:43;;;;;;;;;;;21.20;99.90;;;;;;4979175;28;19925;-77
2021/07/07 12:21:11;;;;;;;;;;;21.10;99.90;;;;;;4993216;28;19953;-77
2021/07/07 12:23:46;;;;;;;;;;;21.20;99.90;;;;;;4993880;28;20000;-77
2021/07/07 12:26:13;;;;;;;;;;;21.30;99.90;;;;;;4982703;28;20004;-77
2021/07/07 12:28:38;;;;;;;;;;;21.20;99.90;;;;;;4995469;28;20072;-77
2021/07/07 12:31:04;;;;;;;;;;;21.10;99.90;;;;;;4979381;28;20322;-77
2021/07/07 12:33:31;;;;;;;;;;;21.10;99.90;;;;;;4995493;28;19992;-77
2021/07/07 12:35:57;;;;;;;;;;;21.10;99.90;;;;;;4977458;28;20041;-76
2021/07/07 12:38:22;;;;;;;;;;;21.20;99.90;;;;;;4979585;28;19921;-76
2021/07/07 12:40:51;;;;;;;;;;;21.20;99.90;;;;;;4995553;28;19914;-76
2021/07/07 12:43:26;;;;;;;;;;;21.20;99.90;;;;;;4977827;28;20224;-76
2021/07/07 12:46:00;;;;;;;;;;;21.30;99.90;;;;;;4979213;28;19918;-76
2021/07/07 12:48:26;;;;;;;;;;;21.30;99.90;;;;;;4995305;28;20343;-78
2021/07/07 12:50:52;;;;;;;;;;;21.50;99.90;;;;;;5030732;28;19924;-78
2021/07/07 12:53:30;;;;;;;;;;;21.50;99.90;;;;;;5034615;28;19970;-76
2021/07/07 12:56:05;;;;;;;;;;;21.60;99.90;;;;;;5035506;28;19932;-76
2021/07/07 12:58:30;;;;;;;;;;;21.60;99.90;;;;;;5017962;28;19909;-77
2021/07/07 13:00:56;;;;;;;;;;;21.60;99.90;;;;;;5018575;28;20011;-75
2021/07/07 13:03:32;;;;;;;;;;;21.70;99.90;;;;;;5019316;28;19920;-76
2021/07/07 13:06:03;;;;;;;;;;;21.70;99.90;;;;;;5016972;28;19913;-77
2021/07/07 13:08:46;;;;;;;;;;;21.70;99.90;;;;;;5052293;28;20189;-78
2021/07/07 13:11:16;;;;;;;;;;;21.60;99.90;;;;;;5018866;28;19996;-75
2021/07/07 13:13:41;;;;;;;;;;;21.60;99.90;;;;;;5036035;28;19913;-75
2021/07/07 13:16:12;;;;;;;;;;;21.60;99.90;;;;;;5022079;28;19968;-77
2021/07/07 13:19:01;;;;;;;;;;;21.70;99.90;;;;;;5014728;28;19917;-77
2021/07/07 13:21:36;;;;;;;;;;;21.60;99.90;;;;;;5023412;28;19917;-78
2021/07/07 13:24:06;;;;;;;;;;;21.70;99.90;;;;;;5034969;28;19919;-78
2021/07/07 13:26:39;;;;;;;;;;;21.70;99.90;;;;;;5032412;28;19929;-78
2021/07/07 13:29:15;;;;;;;;;;;21.60;99.90;;;;;;5033372;28;19913;-77
2021/07/07 13:31:41;;;;;;;;;;;21.60;99.90;;;;;;5031471;28;19995;-77
2021/07/07 13:34:08;;;;;;;;;;;21.70;99.90;;;;;;5031280;28;20281;-78
2021/07/07 13:36:37;;;;;;;;;;;21.80;99.90;;;;;;5034049;28;19925;-76
2021/07/07 13:39:06;;;;;;;;;;;21.90;99.90;;;;;;5034353;28;20024;-78
2021/07/07 13:41:31;;;;;;;;;;;21.90;99.90;;;;;;5036457;28;20008;-77
2021/07/07 13:43:57;;;;;;;;;;;21.90;99.90;;;;;;5033840;28;20024;-78
2021/07/07 13:46:23;;;;;;;;;;;21.90;99.90;;;;;;5034052;28;19960;-75
2021/07/07 13:48:48;;;;;;;;;;;22.10;99.90;;;;;;5034122;28;19925;-78
2021/07/07 13:51:14;;;;;;;;;;;22.20;99.90;;;;;;5032872;28;19925;-79
2021/07/07 13:53:40;;;;;;;;;;;22.20;99.90;;;;;;5034653;28;19924;-79
2021/07/07 13:56:05;;;;;;;;;;;22.30;99.90;;;;;;5035165;28;19928;-77
2021/07/07 13:58:31;;;;;;;;;;;22.40;99.90;;;;;;5031795;28;19917;-78
2021/07/07 14:00:56;;;;;;;;;;;22.60;99.90;;;;;;5034302;28;19920;-77
2021/07/07 14:03:22;;;;;;;;;;;22.50;99.90;;;;;;5033807;28;19944;-78
2021/07/07 14:05:48;;;;;;;;;;;22.50;99.90;;;;;;5032174;28;19950;-79
2021/07/07 14:08:14;;;;;;;;;;;22.40;99.90;;;;;;5031730;28;20296;-77
2021/07/07 14:10:39;;;;;;;;;;;22.40;99.90;;;;;;5032054;28;19920;-77
2021/07/07 14:13:05;;;;;;;;;;;22.40;99.90;;;;;;5048883;28;19931;-80
2021/07/07 14:15:31;;;;;;;;;;;22.40;99.90;;;;;;5049390;28;19917;-78